createdAt,value
2022-08-05T00:00:48.436Z,32.10
2022-08-05T00:06:05.582Z,32.30
2022-08-05T00:11:24.007Z,31.40
2022-08-05T00:16:36.290Z,32.30
2022-08-05T00:21:38.483Z,32.70
2022-08-05T00:26:50.761Z,33.10
2022-08-05T00:32:12.724Z,32.60
2022-08-05T00:37:15.976Z,32.70
2022-08-05T00:42:32.030Z,32.90
2022-08-05T00:47:55.975Z,32.80
2022-08-05T00:52:56.297Z,32.90
2022-08-05T00:57:59.307Z,32.80
2022-08-05T01:03:01.098Z,33.10
2022-08-05T01:08:30.812Z,34.00
2022-08-05T01:13:57.382Z,34.10
2022-08-05T01:18:56.235Z,33.70
2022-08-05T01:24:01.376Z,33.40
2022-08-05T01:29:23.023Z,33.50
2022-08-05T01:34:27.121Z,34.20
2022-08-05T01:39:45.637Z,33.70
2022-08-05T01:44:53.949Z,34.00
2022-08-05T01:50:01.826Z,34.00
2022-08-05T01:55:07.197Z,34.10
2022-08-05T02:00:12.062Z,35.00
2022-08-05T02:05:14.961Z,34.50
2022-08-05T02:10:17.646Z,35.00
2022-08-05T02:15:22.880Z,35.00
2022-08-05T02:20:26.486Z,34.20
2022-08-05T02:25:33.126Z,35.00
2022-08-05T02:30:56.541Z,34.60
2022-08-05T02:36:01.211Z,35.10
2022-08-05T02:41:06.414Z,34.90
2022-08-05T02:46:22.337Z,33.90
2022-08-05T02:52:03.122Z,34.30
2022-08-05T02:56:51.811Z,33.90
2022-08-05T03:01:58.167Z,33.90
2022-08-05T03:07:00.512Z,34.50
2022-08-05T03:12:02.195Z,35.20
2022-08-05T03:17:08.739Z,36.00
2022-08-05T03:22:16.751Z,35.50
2022-08-05T03:27:20.773Z,35.30
2022-08-05T03:32:30.887Z,35.60
2022-08-05T03:37:45.709Z,34.80
2022-08-05T03:42:51.753Z,34.20
2022-08-05T03:47:57.006Z,34.00
2022-08-05T03:55:07.023Z,33.20
2022-08-05T03:58:29.191Z,34.70
2022-08-05T04:03:36.021Z,35.10
2022-08-05T04:08:39.829Z,35.60
2022-08-05T04:13:50.406Z,36.00
2022-08-05T04:18:54.384Z,35.70
2022-08-05T04:24:06.759Z,35.70
2022-08-05T04:29:10.669Z,35.50
2022-08-05T04:34:31.129Z,36.00
2022-08-05T04:39:35.391Z,36.00
2022-08-05T04:44:37.590Z,35.00
2022-08-05T04:50:01.566Z,34.90
2022-08-05T04:55:13.849Z,34.80
2022-08-05T05:00:16.944Z,35.10
2022-08-05T05:05:28.933Z,35.40
2022-08-05T05:10:33.224Z,34.80
2022-08-05T05:15:57.847Z,35.10
2022-08-05T05:20:56.996Z,36.20
2022-08-05T05:26:00.351Z,36.50
2022-08-05T05:31:02.328Z,36.70
2022-08-05T05:36:07.609Z,36.40
2022-08-05T05:41:09.368Z,36.80
2022-08-05T05:46:17.698Z,37.10
2022-08-05T05:51:21.466Z,36.20
2022-08-05T05:56:26.002Z,35.60
2022-08-05T06:01:37.995Z,35.40
2022-08-05T06:06:42.797Z,35.60
2022-08-05T06:11:59.301Z,35.60
2022-08-05T06:17:24.282Z,35.80
2022-08-05T06:22:29.794Z,35.80
2022-08-05T06:28:10.650Z,36.00
2022-08-05T06:32:53.242Z,36.50
2022-08-05T06:37:58.177Z,36.40
2022-08-05T06:43:00.609Z,36.40
2022-08-05T06:48:35.996Z,36.70
2022-08-05T06:53:28.432Z,36.80
2022-08-05T06:58:36.528Z,36.70
2022-08-05T07:03:38.482Z,36.50
2022-08-05T07:08:40.110Z,36.30
2022-08-05T07:14:02.373Z,36.30
2022-08-05T07:19:04.188Z,36.20
2022-08-05T07:24:06.056Z,36.10
2022-08-05T07:29:13.445Z,36.20
2022-08-05T07:34:15.514Z,36.10
2022-08-05T07:39:24.360Z,36.00
2022-08-05T07:44:46.299Z,36.10
2022-08-05T07:49:54.675Z,36.00
2022-08-05T07:54:57.092Z,35.90
2022-08-05T07:59:59.738Z,35.90
2022-08-05T08:05:01.635Z,35.80
2022-08-05T08:10:03.945Z,35.90
2022-08-05T08:15:09.703Z,35.90
2022-08-05T08:20:43.664Z,35.80
2022-08-05T08:26:00.215Z,35.80
2022-08-05T08:31:00.226Z,35.90
2022-08-05T08:36:18.744Z,35.80
2022-08-05T08:41:50.822Z,35.80
2022-08-05T08:46:48.429Z,35.80
2022-08-05T08:52:03.147Z,35.90
2022-08-05T08:57:11.369Z,35.80
2022-08-05T09:02:16.651Z,35.80
2022-08-05T09:07:28.164Z,35.80
2022-08-05T09:12:30.437Z,35.90
2022-08-05T09:17:42.672Z,35.90
2022-08-05T09:23:05.471Z,35.90
2022-08-05T09:28:23.285Z,35.90
2022-08-05T09:33:34.905Z,35.90
2022-08-05T09:38:36.946Z,35.90
2022-08-05T09:43:40.487Z,35.80
2022-08-05T09:48:43.759Z,35.90
2022-08-05T09:54:08.386Z,35.90
2022-08-05T09:59:12.660Z,35.90
2022-08-05T10:04:18.961Z,35.90
2022-08-05T10:09:31.033Z,35.90
2022-08-05T10:14:47.141Z,35.80
2022-08-05T10:20:04.020Z,35.90
2022-08-05T10:25:10.883Z,35.90
2022-08-05T10:31:19.921Z,35.90
2022-08-05T10:35:40.678Z,35.80
2022-08-05T10:40:49.192Z,35.80
2022-08-05T10:45:56.237Z,35.80
2022-08-05T10:51:21.750Z,35.90
2022-08-05T10:56:26.340Z,35.90
2022-08-05T11:01:55.114Z,35.80
2022-08-05T11:07:06.790Z,35.80
2022-08-05T11:12:38.483Z,35.80
2022-08-05T11:17:59.261Z,35.80
2022-08-05T11:23:25.282Z,35.80
2022-08-05T11:28:27.001Z,35.80
2022-08-05T11:33:47.928Z,35.80
2022-08-05T11:38:52.405Z,35.70
2022-08-05T11:44:04.725Z,35.70
2022-08-05T11:49:13.499Z,35.70
2022-08-05T11:54:34.392Z,35.60
2022-08-05T11:59:41.406Z,35.70
2022-08-05T12:04:58.930Z,35.60
2022-08-05T12:10:09.164Z,35.60
2022-08-05T12:15:38.578Z,35.60
2022-08-05T12:20:41.856Z,35.60
2022-08-05T12:25:53.588Z,35.50
2022-08-05T12:30:58.452Z,35.50
2022-08-05T12:36:08.600Z,35.50
2022-08-05T12:41:13.530Z,35.40
2022-08-05T12:46:28.132Z,35.50
2022-08-05T12:52:12.603Z,35.50
2022-08-05T12:56:54.043Z,35.40
2022-08-05T13:02:07.382Z,35.40
2022-08-05T13:07:16.098Z,35.40
2022-08-05T13:12:50.707Z,35.40
2022-08-05T13:17:55.921Z,35.40
2022-08-05T13:23:01.047Z,35.40
2022-08-05T13:28:10.593Z,35.50
2022-08-05T13:33:14.434Z,35.30
2022-08-05T13:38:36.251Z,35.40
2022-08-05T13:43:44.433Z,35.30
2022-08-05T13:48:58.359Z,35.30
2022-08-05T13:54:02.763Z,35.90
2022-08-05T13:59:05.964Z,35.30
2022-08-05T14:04:39.337Z,35.40
2022-08-05T14:09:46.141Z,35.40
2022-08-05T14:14:48.283Z,35.40
2022-08-05T14:19:56.197Z,35.40
2022-08-05T14:25:01.846Z,35.40
2022-08-05T14:30:20.157Z,35.40
2022-08-05T14:35:22.880Z,35.40
2022-08-05T14:40:24.756Z,35.40
2022-08-05T14:45:26.412Z,35.40
2022-08-05T14:50:28.247Z,35.40
2022-08-05T14:55:39.386Z,35.40
2022-08-05T15:00:58.227Z,35.40
2022-08-05T15:06:12.902Z,35.40
2022-08-05T15:11:17.388Z,35.50
2022-08-05T15:16:19.107Z,35.40
2022-08-05T15:21:21.283Z,35.50
2022-08-05T15:26:31.987Z,35.60
2022-08-05T15:31:34.923Z,35.60
2022-08-05T15:36:36.809Z,35.60
2022-08-05T15:41:58.549Z,35.70
2022-08-05T15:47:01.075Z,35.70
2022-08-05T15:52:16.238Z,35.70
2022-08-05T15:57:25.426Z,35.80
2022-08-05T16:02:35.097Z,35.90
2022-08-05T16:07:36.909Z,36.00
2022-08-05T16:12:38.602Z,36.10
2022-08-05T16:17:40.336Z,36.40
2022-08-05T16:22:42.034Z,36.70
2022-08-05T16:27:59.830Z,36.80
2022-08-05T16:33:05.464Z,36.90
2022-08-05T16:38:24.166Z,37.00
2022-08-05T16:43:28.924Z,37.20
2022-08-05T16:48:35.051Z,37.30
2022-08-05T16:54:05.650Z,37.40
2022-08-05T16:59:08.027Z,37.40
2022-08-05T17:04:10.224Z,37.50
2022-08-05T17:09:12.028Z,37.50
2022-08-05T17:14:22.529Z,37.50
2022-08-05T17:19:40.128Z,37.50
2022-08-05T17:24:46.396Z,37.60
2022-08-05T17:30:02.188Z,37.60
2022-08-05T17:35:04.661Z,37.80
2022-08-05T17:40:10.233Z,38.00
2022-08-05T17:45:18.091Z,38.20
2022-08-05T17:50:28.358Z,38.40
2022-08-05T17:55:37.170Z,38.60
2022-08-05T18:00:47.647Z,38.70
2022-08-05T18:05:53.644Z,38.70
2022-08-05T18:10:55.976Z,38.90
2022-08-05T18:15:59.151Z,38.90
2022-08-05T18:21:00.853Z,38.80
2022-08-05T18:26:03.362Z,36.50
2022-08-05T18:31:07.143Z,36.80
2022-08-05T18:36:15.414Z,37.10
2022-08-05T18:41:55.344Z,36.60
2022-08-05T18:46:41.007Z,36.90
2022-08-05T18:52:06.598Z,37.60
2022-08-05T18:57:15.481Z,38.10
2022-08-05T19:02:38.073Z,38.10
2022-08-05T19:07:42.352Z,38.50
2022-08-05T19:12:48.935Z,38.30
2022-08-05T19:18:08.739Z,38.10
2022-08-05T19:24:05.996Z,37.90
2022-08-05T19:28:34.803Z,37.60
2022-08-05T19:33:38.079Z,37.80
2022-08-05T19:38:43.690Z,37.60
2022-08-05T19:44:06.917Z,37.40
2022-08-05T19:49:07.424Z,37.10
2022-08-05T19:54:28.409Z,37.40
2022-08-05T19:59:55.368Z,37.70
2022-08-05T20:04:58.869Z,37.90
2022-08-05T20:10:01.137Z,37.70
2022-08-05T20:15:02.824Z,38.80
2022-08-05T20:20:09.498Z,39.50
2022-08-05T20:25:12.857Z,40.00
2022-08-05T20:30:14.667Z,39.90
2022-08-05T20:35:20.232Z,39.70
2022-08-05T20:40:22.054Z,39.80
2022-08-05T20:45:23.793Z,39.60
2022-08-05T20:50:46.903Z,39.40
2022-08-05T20:55:54.759Z,40.10
2022-08-05T21:00:57.784Z,39.90
2022-08-05T21:06:00.337Z,39.90
2022-08-05T21:11:09.156Z,40.50
2022-08-05T21:16:13.470Z,44.20
2022-08-05T21:21:15.745Z,46.00
2022-08-05T21:26:17.412Z,46.70
2022-08-05T21:31:19.541Z,46.60
2022-08-05T21:36:29.759Z,47.30
2022-08-05T21:41:34.318Z,47.10
2022-08-05T21:46:37.200Z,47.60
2022-08-05T21:52:22.433Z,47.70
2022-08-05T21:57:31.165Z,47.60
2022-08-05T22:02:22.444Z,48.00
2022-08-05T22:07:39.740Z,49.50
2022-08-05T22:12:50.669Z,48.20
2022-08-05T22:17:59.863Z,47.60
2022-08-05T22:23:21.353Z,48.20
2022-08-05T22:28:25.468Z,47.80
2022-08-05T22:33:58.407Z,47.70
2022-08-05T22:38:49.673Z,47.70
2022-08-05T22:43:51.373Z,47.70
2022-08-05T22:48:53.037Z,48.40
2022-08-05T22:53:55.148Z,49.00
2022-08-05T22:58:56.983Z,48.40
2022-08-05T23:03:59.761Z,48.40
2022-08-05T23:09:24.598Z,48.80
2022-08-05T23:14:32.224Z,47.90
2022-08-05T23:19:38.558Z,48.00
2022-08-05T23:24:51.203Z,47.80
2022-08-05T23:29:53.986Z,48.60
2022-08-05T23:34:56.612Z,48.70
2022-08-05T23:39:58.286Z,48.70
2022-08-05T23:45:01.869Z,49.30
2022-08-05T23:50:04.083Z,49.40
2022-08-05T23:55:11.355Z,49.30
